sensor_id;sensor_type;location;lat;lon;timestamp;pressure;altitude;pressure_sealevel;temperature;humidity
70198;BME280;57582;-34.876;138.628;2023-04-28T00:01:19;100912;;;18.64;52.05
70198;BME280;57582;-34.876;138.628;2023-04-28T00:04:18;100923;;;18.61;51.58
70198;BME280;57582;-34.876;138.628;2023-04-28T00:07:18;100932;;;18.52;50.42
70198;BME280;57582;-34.876;138.628;2023-04-28T00:10:18;100930;;;18.43;49.56
70198;BME280;57582;-34.876;138.628;2023-04-28T00:13:19;100921;;;18.55;50.75
70198;BME280;57582;-34.876;138.628;2023-04-28T00:16:18;100927;;;18.70;50.52
70198;BME280;57582;-34.876;138.628;2023-04-28T00:19:18;100932;;;18.80;49.62
70198;BME280;57582;-34.876;138.628;2023-04-28T00:22:18;100927;;;18.97;50.61
70198;BME280;57582;-34.876;138.628;2023-04-28T00:25:19;100924;;;18.86;50.64
70198;BME280;57582;-34.876;138.628;2023-04-28T00:28:19;100926;;;18.69;50.67
70198;BME280;57582;-34.876;138.628;2023-04-28T00:31:18;100934;;;18.74;50.29
70198;BME280;57582;-34.876;138.628;2023-04-28T00:34:18;100937;;;18.69;50.54
70198;BME280;57582;-34.876;138.628;2023-04-28T00:37:19;100932;;;18.86;51.33
70198;BME280;57582;-34.876;138.628;2023-04-28T00:40:18;100937;;;18.95;50.78
70198;BME280;57582;-34.876;138.628;2023-04-28T00:43:18;100930;;;19.04;50.19
70198;BME280;57582;-34.876;138.628;2023-04-28T00:46:23;100930;;;19.18;50.47
70198;BME280;57582;-34.876;138.628;2023-04-28T00:49:19;100924;;;19.24;49.46
70198;BME280;57582;-34.876;138.628;2023-04-28T00:52:19;100936;;;19.31;48.60
70198;BME280;57582;-34.876;138.628;2023-04-28T00:55:19;100936;;;19.32;48.58
70198;BME280;57582;-34.876;138.628;2023-04-28T00:58:19;100934;;;19.43;48.16
70198;BME280;57582;-34.876;138.628;2023-04-28T01:01:19;100932;;;19.50;47.03
70198;BME280;57582;-34.876;138.628;2023-04-28T01:04:19;100934;;;19.51;47.16
70198;BME280;57582;-34.876;138.628;2023-04-28T01:07:19;100937;;;19.58;46.75
70198;BME280;57582;-34.876;138.628;2023-04-28T01:10:19;100942;;;19.59;42.36
70198;BME280;57582;-34.876;138.628;2023-04-28T01:13:20;100947;;;19.46;43.80
70198;BME280;57582;-34.876;138.628;2023-04-28T01:16:19;100950;;;19.36;43.61
70198;BME280;57582;-34.876;138.628;2023-04-28T01:19:19;100957;;;19.13;43.71
70198;BME280;57582;-34.876;138.628;2023-04-28T01:22:19;100954;;;19.19;43.59
70198;BME280;57582;-34.876;138.628;2023-04-28T01:25:19;100951;;;19.35;42.87
70198;BME280;57582;-34.876;138.628;2023-04-28T01:28:19;100951;;;19.50;42.67
70198;BME280;57582;-34.876;138.628;2023-04-28T01:31:19;100949;;;19.55;42.96
70198;BME280;57582;-34.876;138.628;2023-04-28T01:34:19;100955;;;19.51;42.92
70198;BME280;57582;-34.876;138.628;2023-04-28T01:37:19;100952;;;19.50;42.62
70198;BME280;57582;-34.876;138.628;2023-04-28T01:40:19;100956;;;19.42;42.35
70198;BME280;57582;-34.876;138.628;2023-04-28T01:43:19;100954;;;19.42;43.01
70198;BME280;57582;-34.876;138.628;2023-04-28T01:46:19;100951;;;19.24;42.13
70198;BME280;57582;-34.876;138.628;2023-04-28T01:49:19;100955;;;19.23;43.71
70198;BME280;57582;-34.876;138.628;2023-04-28T01:52:19;100952;;;19.22;43.21
70198;BME280;57582;-34.876;138.628;2023-04-28T01:55:19;100942;;;19.43;42.97
70198;BME280;57582;-34.876;138.628;2023-04-28T01:58:19;100954;;;19.35;42.58
70198;BME280;57582;-34.876;138.628;2023-04-28T02:01:20;100946;;;19.53;43.48
70198;BME280;57582;-34.876;138.628;2023-04-28T02:04:19;100940;;;19.60;42.82
70198;BME280;57582;-34.876;138.628;2023-04-28T02:07:19;100908;;;19.60;42.16
70198;BME280;57582;-34.876;138.628;2023-04-28T02:10:19;100930;;;19.80;43.08
70198;BME280;57582;-34.876;138.628;2023-04-28T02:13:19;100925;;;19.87;41.92
70198;BME280;57582;-34.876;138.628;2023-04-28T02:16:19;100931;;;19.90;41.06
70198;BME280;57582;-34.876;138.628;2023-04-28T02:19:19;100923;;;19.78;40.83
70198;BME280;57582;-34.876;138.628;2023-04-28T02:22:19;100925;;;19.95;41.41
70198;BME280;57582;-34.876;138.628;2023-04-28T02:25:20;100928;;;19.87;42.25
70198;BME280;57582;-34.876;138.628;2023-04-28T02:28:19;100931;;;19.92;42.76
70198;BME280;57582;-34.876;138.628;2023-04-28T02:31:19;100924;;;20.06;42.59
70198;BME280;57582;-34.876;138.628;2023-04-28T02:34:19;100922;;;20.21;40.93
70198;BME280;57582;-34.876;138.628;2023-04-28T02:37:19;100918;;;20.39;39.66
70198;BME280;57582;-34.876;138.628;2023-04-28T02:40:19;100915;;;20.30;40.08
70198;BME280;57582;-34.876;138.628;2023-04-28T02:43:19;100901;;;20.25;39.52
70198;BME280;57582;-34.876;138.628;2023-04-28T02:46:19;100908;;;20.52;40.15
70198;BME280;57582;-34.876;138.628;2023-04-28T02:49:20;100907;;;20.57;40.14
70198;BME280;57582;-34.876;138.628;2023-04-28T02:52:19;100906;;;20.51;39.07
70198;BME280;57582;-34.876;138.628;2023-04-28T02:55:19;100905;;;20.31;40.36
70198;BME280;57582;-34.876;138.628;2023-04-28T02:58:19;100901;;;20.23;40.24
70198;BME280;57582;-34.876;138.628;2023-04-28T03:01:19;100902;;;19.89;40.34
70198;BME280;57582;-34.876;138.628;2023-04-28T03:04:19;100909;;;19.74;41.16
70198;BME280;57582;-34.876;138.628;2023-04-28T03:07:19;100916;;;19.75;40.83
70198;BME280;57582;-34.876;138.628;2023-04-28T03:10:19;100905;;;19.68;40.20
70198;BME280;57582;-34.876;138.628;2023-04-28T03:13:20;100908;;;19.60;40.45
70198;BME280;57582;-34.876;138.628;2023-04-28T03:16:19;100908;;;19.45;40.36
70198;BME280;57582;-34.876;138.628;2023-04-28T03:19:19;100901;;;19.49;40.03
70198;BME280;57582;-34.876;138.628;2023-04-28T03:22:19;100891;;;19.66;39.96
70198;BME280;57582;-34.876;138.628;2023-04-28T03:25:19;100889;;;19.58;39.76
70198;BME280;57582;-34.876;138.628;2023-04-28T03:28:19;100875;;;19.47;39.63
70198;BME280;57582;-34.876;138.628;2023-04-28T03:31:19;100883;;;19.37;40.27
70198;BME280;57582;-34.876;138.628;2023-04-28T03:34:19;100888;;;19.42;40.27
70198;BME280;57582;-34.876;138.628;2023-04-28T03:37:20;100879;;;19.29;40.73
70198;BME280;57582;-34.876;138.628;2023-04-28T03:40:19;100880;;;19.11;40.50
70198;BME280;57582;-34.876;138.628;2023-04-28T03:43:19;100880;;;19.23;40.74
70198;BME280;57582;-34.876;138.628;2023-04-28T03:46:19;100871;;;19.43;40.85
70198;BME280;57582;-34.876;138.628;2023-04-28T03:49:20;100877;;;19.40;41.48
70198;BME280;57582;-34.876;138.628;2023-04-28T03:52:19;100866;;;19.48;41.31
70198;BME280;57582;-34.876;138.628;2023-04-28T03:55:19;100858;;;19.64;41.02
70198;BME280;57582;-34.876;138.628;2023-04-28T03:58:19;100858;;;19.83;40.63
70198;BME280;57582;-34.876;138.628;2023-04-28T04:01:19;100857;;;19.87;40.71
70198;BME280;57582;-34.876;138.628;2023-04-28T04:04:19;100852;;;19.92;40.94
70198;BME280;57582;-34.876;138.628;2023-04-28T04:07:19;100847;;;19.96;41.49
70198;BME280;57582;-34.876;138.628;2023-04-28T04:10:19;100867;;;19.94;42.16
70198;BME280;57582;-34.876;138.628;2023-04-28T04:13:19;100852;;;19.82;42.41
70198;BME280;57582;-34.876;138.628;2023-04-28T04:16:19;100845;;;19.77;41.78
70198;BME280;57582;-34.876;138.628;2023-04-28T04:19:19;100849;;;19.71;42.61
70198;BME280;57582;-34.876;138.628;2023-04-28T04:22:19;100850;;;19.81;43.41
70198;BME280;57582;-34.876;138.628;2023-04-28T04:25:20;100846;;;19.82;42.98
70198;BME280;57582;-34.876;138.628;2023-04-28T04:28:19;100839;;;19.88;42.83
70198;BME280;57582;-34.876;138.628;2023-04-28T04:31:19;100841;;;19.92;42.66
70198;BME280;57582;-34.876;138.628;2023-04-28T04:34:19;100844;;;19.91;42.68
70198;BME280;57582;-34.876;138.628;2023-04-28T04:37:19;100851;;;19.95;43.06
70198;BME280;57582;-34.876;138.628;2023-04-28T04:40:19;100845;;;19.68;43.53
70198;BME280;57582;-34.876;138.628;2023-04-28T04:43:19;100845;;;19.70;43.70
70198;BME280;57582;-34.876;138.628;2023-04-28T04:46:19;100847;;;19.70;43.37
70198;BME280;57582;-34.876;138.628;2023-04-28T04:49:19;100843;;;19.74;42.83
70198;BME280;57582;-34.876;138.628;2023-04-28T04:52:19;100855;;;19.66;42.48
70198;BME280;57582;-34.876;138.628;2023-04-28T04:55:19;100856;;;19.55;42.09
70198;BME280;57582;-34.876;138.628;2023-04-28T04:58:19;100852;;;19.49;40.66
70198;BME280;57582;-34.876;138.628;2023-04-28T05:01:20;100844;;;19.56;41.42
70198;BME280;57582;-34.876;138.628;2023-04-28T05:04:19;100853;;;19.61;40.61
70198;BME280;57582;-34.876;138.628;2023-04-28T05:07:19;100847;;;19.48;42.63
70198;BME280;57582;-34.876;138.628;2023-04-28T05:10:19;100856;;;19.45;44.48
70198;BME280;57582;-34.876;138.628;2023-04-28T05:13:19;100856;;;19.16;45.18
70198;BME280;57582;-34.876;138.628;2023-04-28T05:16:19;100857;;;19.05;45.68
70198;BME280;57582;-34.876;138.628;2023-04-28T05:19:19;100861;;;19.07;45.42
70198;BME280;57582;-34.876;138.628;2023-04-28T05:22:19;100862;;;19.10;45.41
70198;BME280;57582;-34.876;138.628;2023-04-28T05:25:20;100866;;;19.10;44.87
70198;BME280;57582;-34.876;138.628;2023-04-28T05:28:19;100863;;;19.25;44.87
70198;BME280;57582;-34.876;138.628;2023-04-28T05:31:19;100859;;;19.37;44.91
70198;BME280;57582;-34.876;138.628;2023-04-28T05:34:19;100856;;;19.45;44.40
70198;BME280;57582;-34.876;138.628;2023-04-28T05:37:19;100853;;;19.39;43.84
70198;BME280;57582;-34.876;138.628;2023-04-28T05:40:19;100845;;;19.45;43.72
70198;BME280;57582;-34.876;138.628;2023-04-28T05:43:19;100848;;;19.60;43.93
70198;BME280;57582;-34.876;138.628;2023-04-28T05:46:19;100849;;;19.71;43.39
70198;BME280;57582;-34.876;138.628;2023-04-28T05:49:19;100841;;;19.86;43.35
70198;BME280;57582;-34.876;138.628;2023-04-28T05:52:19;100847;;;19.89;42.76
70198;BME280;57582;-34.876;138.628;2023-04-28T05:55:19;100845;;;20.01;42.84
70198;BME280;57582;-34.876;138.628;2023-04-28T05:58:19;100839;;;20.06;42.38
70198;BME280;57582;-34.876;138.628;2023-04-28T06:01:21;100834;;;19.94;41.37
70198;BME280;57582;-34.876;138.628;2023-04-28T06:04:19;100839;;;20.01;41.81
70198;BME280;57582;-34.876;138.628;2023-04-28T06:07:19;100840;;;19.85;41.87
70198;BME280;57582;-34.876;138.628;2023-04-28T06:10:20;100846;;;19.65;42.24
70198;BME280;57582;-34.876;138.628;2023-04-28T06:13:20;100841;;;19.62;42.21
70198;BME280;57582;-34.876;138.628;2023-04-28T06:16:19;100850;;;19.64;42.21
70198;BME280;57582;-34.876;138.628;2023-04-28T06:19:19;100845;;;19.49;43.53
70198;BME280;57582;-34.876;138.628;2023-04-28T06:22:19;100849;;;19.51;43.21
70198;BME280;57582;-34.876;138.628;2023-04-28T06:25:19;100855;;;19.62;43.96
70198;BME280;57582;-34.876;138.628;2023-04-28T06:28:19;100853;;;19.83;42.97
70198;BME280;57582;-34.876;138.628;2023-04-28T06:31:19;100861;;;19.97;42.54
70198;BME280;57582;-34.876;138.628;2023-04-28T06:34:19;100862;;;20.08;41.75
70198;BME280;57582;-34.876;138.628;2023-04-28T06:37:20;100862;;;20.20;42.01
70198;BME280;57582;-34.876;138.628;2023-04-28T06:40:19;100857;;;20.04;42.10
70198;BME280;57582;-34.876;138.628;2023-04-28T06:43:19;100783;;;19.57;42.48
70198;BME280;57582;-34.876;138.628;2023-04-28T06:46:19;100854;;;20.00;42.93
70198;BME280;57582;-34.876;138.628;2023-04-28T06:49:20;100844;;;19.97;42.81
70198;BME280;57582;-34.876;138.628;2023-04-28T06:52:19;100847;;;20.12;42.62
70198;BME280;57582;-34.876;138.628;2023-04-28T06:55:19;100846;;;20.02;42.99
70198;BME280;57582;-34.876;138.628;2023-04-28T06:58:19;100844;;;19.94;43.03
70198;BME280;57582;-34.876;138.628;2023-04-28T07:01:20;100846;;;19.87;42.74
70198;BME280;57582;-34.876;138.628;2023-04-28T07:04:19;100852;;;19.81;42.90
70198;BME280;57582;-34.876;138.628;2023-04-28T07:07:19;100849;;;19.29;42.95
70198;BME280;57582;-34.876;138.628;2023-04-28T07:10:19;100854;;;19.38;42.84
70198;BME280;57582;-34.876;138.628;2023-04-28T07:13:20;100848;;;19.39;42.53
70198;BME280;57582;-34.876;138.628;2023-04-28T07:16:19;100850;;;19.40;42.59
70198;BME280;57582;-34.876;138.628;2023-04-28T07:19:19;100850;;;19.38;42.38
70198;BME280;57582;-34.876;138.628;2023-04-28T07:22:19;100846;;;19.31;42.65
70198;BME280;57582;-34.876;138.628;2023-04-28T07:25:20;100845;;;19.27;43.04
70198;BME280;57582;-34.876;138.628;2023-04-28T07:28:19;100842;;;19.27;43.07
70198;BME280;57582;-34.876;138.628;2023-04-28T07:31:19;100851;;;19.10;43.83
70198;BME280;57582;-34.876;138.628;2023-04-28T07:34:19;100841;;;18.82;44.09
70198;BME280;57582;-34.876;138.628;2023-04-28T07:37:20;100839;;;18.63;44.70
70198;BME280;57582;-34.876;138.628;2023-04-28T07:40:19;100840;;;18.70;44.67
70198;BME280;57582;-34.876;138.628;2023-04-28T07:43:19;100843;;;18.80;44.69
70198;BME280;57582;-34.876;138.628;2023-04-28T07:46:19;100846;;;18.78;45.15
70198;BME280;57582;-34.876;138.628;2023-04-28T07:49:20;100851;;;18.73;46.82
70198;BME280;57582;-34.876;138.628;2023-04-28T07:52:19;100856;;;18.86;46.89
70198;BME280;57582;-34.876;138.628;2023-04-28T07:55:19;100855;;;18.77;47.13
70198;BME280;57582;-34.876;138.628;2023-04-28T07:58:19;100866;;;18.66;48.37
70198;BME280;57582;-34.876;138.628;2023-04-28T08:01:20;100865;;;18.42;50.27
70198;BME280;57582;-34.876;138.628;2023-04-28T08:04:19;100886;;;18.04;53.55
70198;BME280;57582;-34.876;138.628;2023-04-28T08:07:19;100891;;;18.02;57.81
70198;BME280;57582;-34.876;138.628;2023-04-28T08:10:19;100886;;;18.06;57.82
70198;BME280;57582;-34.876;138.628;2023-04-28T08:13:20;100897;;;18.12;59.60
70198;BME280;57582;-34.876;138.628;2023-04-28T08:16:19;100895;;;17.87;59.60
70198;BME280;57582;-34.876;138.628;2023-04-28T08:19:19;100912;;;17.87;58.98
70198;BME280;57582;-34.876;138.628;2023-04-28T08:22:19;100924;;;17.40;60.43
70198;BME280;57582;-34.876;138.628;2023-04-28T08:25:20;100915;;;17.40;61.38
70198;BME280;57582;-34.876;138.628;2023-04-28T08:28:19;100911;;;17.26;62.20
70198;BME280;57582;-34.876;138.628;2023-04-28T08:31:19;100900;;;17.01;61.94
70198;BME280;57582;-34.876;138.628;2023-04-28T08:34:19;100904;;;17.15;62.16
70198;BME280;57582;-34.876;138.628;2023-04-28T08:37:20;100911;;;17.26;62.18
70198;BME280;57582;-34.876;138.628;2023-04-28T08:40:19;100909;;;17.50;61.74
70198;BME280;57582;-34.876;138.628;2023-04-28T08:43:19;100918;;;17.66;61.20
70198;BME280;57582;-34.876;138.628;2023-04-28T08:46:20;100921;;;17.88;60.53
70198;BME280;57582;-34.876;138.628;2023-04-28T08:49:21;100927;;;17.96;60.16
70198;BME280;57582;-34.876;138.628;2023-04-28T08:52:19;100919;;;18.02;60.81
70198;BME280;57582;-34.876;138.628;2023-04-28T08:55:19;100919;;;18.11;61.17
70198;BME280;57582;-34.876;138.628;2023-04-28T08:58:20;100923;;;18.23;60.55
70198;BME280;57582;-34.876;138.628;2023-04-28T09:01:20;100916;;;18.33;60.20
70198;BME280;57582;-34.876;138.628;2023-04-28T09:04:19;100927;;;18.47;59.65
70198;BME280;57582;-34.876;138.628;2023-04-28T09:07:19;100921;;;18.51;59.28
70198;BME280;57582;-34.876;138.628;2023-04-28T09:13:23;100932;;;18.47;59.23
70198;BME280;57582;-34.876;138.628;2023-04-28T09:16:19;100936;;;18.51;59.25
70198;BME280;57582;-34.876;138.628;2023-04-28T09:19:19;100935;;;18.57;59.14
70198;BME280;57582;-34.876;138.628;2023-04-28T09:22:19;100937;;;18.62;58.78
70198;BME280;57582;-34.876;138.628;2023-04-28T09:25:20;100939;;;18.65;58.35
70198;BME280;57582;-34.876;138.628;2023-04-28T09:28:19;100940;;;18.58;58.41
70198;BME280;57582;-34.876;138.628;2023-04-28T09:31:21;100945;;;18.56;58.23
70198;BME280;57582;-34.876;138.628;2023-04-28T09:34:20;100948;;;18.53;57.61
70198;BME280;57582;-34.876;138.628;2023-04-28T09:37:22;100954;;;18.43;57.67
70198;BME280;57582;-34.876;138.628;2023-04-28T09:40:19;100958;;;18.29;58.20
70198;BME280;57582;-34.876;138.628;2023-04-28T09:46:27;100954;;;18.17;57.97
70198;BME280;57582;-34.876;138.628;2023-04-28T09:49:20;100954;;;18.19;58.02
70198;BME280;57582;-34.876;138.628;2023-04-28T09:52:19;100960;;;18.23;57.88
70198;BME280;57582;-34.876;138.628;2023-04-28T09:55:19;100965;;;18.27;57.86
70198;BME280;57582;-34.876;138.628;2023-04-28T09:58:19;100959;;;18.28;57.88
70198;BME280;57582;-34.876;138.628;2023-04-28T10:01:20;100961;;;18.31;57.87
70198;BME280;57582;-34.876;138.628;2023-04-28T10:04:19;100981;;;18.13;56.97
70198;BME280;57582;-34.876;138.628;2023-04-28T10:07:20;100979;;;17.37;58.87
70198;BME280;57582;-34.876;138.628;2023-04-28T10:10:19;100987;;;16.75;60.29
70198;BME280;57582;-34.876;138.628;2023-04-28T10:13:21;100987;;;16.38;62.15
70198;BME280;57582;-34.876;138.628;2023-04-28T10:16:19;100994;;;15.96;64.07
70198;BME280;57582;-34.876;138.628;2023-04-28T10:19:19;101007;;;15.63;65.24
70198;BME280;57582;-34.876;138.628;2023-04-28T10:25:25;101009;;;15.63;64.83
70198;BME280;57582;-34.876;138.628;2023-04-28T10:28:19;101013;;;15.63;64.04
70198;BME280;57582;-34.876;138.628;2023-04-28T10:31:20;101025;;;15.74;64.11
70198;BME280;57582;-34.876;138.628;2023-04-28T10:34:21;101024;;;15.96;63.75
70198;BME280;57582;-34.876;138.628;2023-04-28T10:37:20;101031;;;16.25;63.30
70198;BME280;57582;-34.876;138.628;2023-04-28T10:43:35;101015;;;16.59;62.66
70198;BME280;57582;-34.876;138.628;2023-04-28T10:46:19;101020;;;16.82;62.48
70198;BME280;57582;-34.876;138.628;2023-04-28T10:49:21;101021;;;17.05;62.27
70198;BME280;57582;-34.876;138.628;2023-04-28T10:55:35;101020;;;17.37;61.60
70198;BME280;57582;-34.876;138.628;2023-04-28T11:01:23;101028;;;17.49;61.52
70198;BME280;57582;-34.876;138.628;2023-04-28T11:04:19;101036;;;17.59;61.35
70198;BME280;57582;-34.876;138.628;2023-04-28T11:07:19;101039;;;17.68;61.28
70198;BME280;57582;-34.876;138.628;2023-04-28T11:10:19;101027;;;17.74;61.42
70198;BME280;57582;-34.876;138.628;2023-04-28T11:13:28;101026;;;17.75;61.23
70198;BME280;57582;-34.876;138.628;2023-04-28T11:16:21;101030;;;17.81;61.33
70198;BME280;57582;-34.876;138.628;2023-04-28T11:22:20;101026;;;17.89;61.12
70198;BME280;57582;-34.876;138.628;2023-04-28T11:25:20;101030;;;17.84;60.99
70198;BME280;57582;-34.876;138.628;2023-04-28T11:28:20;101033;;;17.79;61.57
70198;BME280;57582;-34.876;138.628;2023-04-28T11:31:20;101032;;;17.80;61.76
70198;BME280;57582;-34.876;138.628;2023-04-28T11:34:20;101028;;;17.68;61.55
70198;BME280;57582;-34.876;138.628;2023-04-28T11:37:20;101022;;;17.11;63.52
70198;BME280;57582;-34.876;138.628;2023-04-28T11:40:20;101025;;;16.77;64.53
70198;BME280;57582;-34.876;138.628;2023-04-28T11:43:27;101031;;;16.44;65.35
70198;BME280;57582;-34.876;138.628;2023-04-28T11:46:20;101031;;;15.60;67.70
70198;BME280;57582;-34.876;138.628;2023-04-28T11:49:21;101035;;;15.59;68.68
70198;BME280;57582;-34.876;138.628;2023-04-28T11:52:20;101034;;;15.71;68.10
70198;BME280;57582;-34.876;138.628;2023-04-28T11:55:20;101024;;;15.88;67.73
70198;BME280;57582;-34.876;138.628;2023-04-28T11:58:21;101029;;;16.01;66.92
70198;BME280;57582;-34.876;138.628;2023-04-28T12:01:20;101026;;;16.19;66.25
70198;BME280;57582;-34.876;138.628;2023-04-28T12:04:37;101027;;;15.70;66.94
70198;BME280;57582;-34.876;138.628;2023-04-28T12:07:20;101037;;;15.16;68.74
70198;BME280;57582;-34.876;138.628;2023-04-28T12:10:20;101028;;;15.33;68.94
70198;BME280;57582;-34.876;138.628;2023-04-28T12:13:20;101026;;;15.27;68.94
70198;BME280;57582;-34.876;138.628;2023-04-28T12:16:35;101030;;;15.38;68.85
70198;BME280;57582;-34.876;138.628;2023-04-28T12:19:20;101031;;;15.13;68.61
70198;BME280;57582;-34.876;138.628;2023-04-28T12:22:20;101028;;;15.33;68.99
70198;BME280;57582;-34.876;138.628;2023-04-28T12:25:20;101028;;;15.17;67.97
70198;BME280;57582;-34.876;138.628;2023-04-28T12:28:20;101030;;;15.30;67.80
70198;BME280;57582;-34.876;138.628;2023-04-28T12:31:20;101029;;;15.46;67.71
70198;BME280;57582;-34.876;138.628;2023-04-28T12:34:20;101029;;;15.66;66.87
70198;BME280;57582;-34.876;138.628;2023-04-28T12:37:20;101031;;;15.83;66.22
70198;BME280;57582;-34.876;138.628;2023-04-28T12:40:20;101037;;;15.94;65.75
70198;BME280;57582;-34.876;138.628;2023-04-28T12:43:20;101033;;;16.10;65.72
70198;BME280;57582;-34.876;138.628;2023-04-28T12:46:20;101024;;;16.24;65.43
70198;BME280;57582;-34.876;138.628;2023-04-28T12:49:20;101034;;;16.33;64.50
70198;BME280;57582;-34.876;138.628;2023-04-28T12:52:20;101043;;;16.48;64.51
70198;BME280;57582;-34.876;138.628;2023-04-28T12:55:20;101036;;;16.57;64.47
70198;BME280;57582;-34.876;138.628;2023-04-28T12:58:20;101037;;;16.77;64.07
70198;BME280;57582;-34.876;138.628;2023-04-28T13:01:20;101031;;;16.85;63.97
70198;BME280;57582;-34.876;138.628;2023-04-28T13:04:20;101033;;;16.91;63.92
70198;BME280;57582;-34.876;138.628;2023-04-28T13:07:20;101042;;;17.03;63.54
70198;BME280;57582;-34.876;138.628;2023-04-28T13:10:20;101033;;;16.68;64.55
70198;BME280;57582;-34.876;138.628;2023-04-28T13:13:20;101034;;;16.76;64.17
70198;BME280;57582;-34.876;138.628;2023-04-28T13:16:20;101042;;;16.79;64.13
70198;BME280;57582;-34.876;138.628;2023-04-28T13:19:20;101039;;;16.82;63.64
70198;BME280;57582;-34.876;138.628;2023-04-28T13:22:21;101037;;;16.84;63.76
70198;BME280;57582;-34.876;138.628;2023-04-28T13:25:20;101039;;;16.85;62.52
70198;BME280;57582;-34.876;138.628;2023-04-28T13:28:20;101025;;;16.90;63.59
70198;BME280;57582;-34.876;138.628;2023-04-28T13:31:20;101034;;;17.00;63.61
70198;BME280;57582;-34.876;138.628;2023-04-28T13:34:20;101029;;;17.15;63.09
70198;BME280;57582;-34.876;138.628;2023-04-28T13:37:20;101019;;;17.29;62.38
70198;BME280;57582;-34.876;138.628;2023-04-28T13:40:20;101027;;;17.45;61.45
70198;BME280;57582;-34.876;138.628;2023-04-28T13:43:20;101018;;;17.64;60.20
70198;BME280;57582;-34.876;138.628;2023-04-28T13:46:20;101014;;;17.74;60.53
70198;BME280;57582;-34.876;138.628;2023-04-28T13:49:20;101014;;;17.71;58.29
70198;BME280;57582;-34.876;138.628;2023-04-28T13:52:20;101013;;;17.72;59.12
70198;BME280;57582;-34.876;138.628;2023-04-28T13:55:20;101012;;;17.70;59.18
70198;BME280;57582;-34.876;138.628;2023-04-28T13:58:20;101007;;;17.44;59.78
70198;BME280;57582;-34.876;138.628;2023-04-28T14:01:20;101006;;;17.42;60.17
70198;BME280;57582;-34.876;138.628;2023-04-28T14:04:20;101005;;;17.40;59.80
70198;BME280;57582;-34.876;138.628;2023-04-28T14:07:20;101002;;;17.54;58.68
70198;BME280;57582;-34.876;138.628;2023-04-28T14:10:21;101003;;;17.48;60.16
70198;BME280;57582;-34.876;138.628;2023-04-28T14:13:20;101001;;;17.47;59.72
70198;BME280;57582;-34.876;138.628;2023-04-28T14:16:20;100997;;;17.41;60.56
70198;BME280;57582;-34.876;138.628;2023-04-28T14:19:20;101000;;;17.34;60.60
70198;BME280;57582;-34.876;138.628;2023-04-28T14:22:20;100998;;;17.19;61.02
70198;BME280;57582;-34.876;138.628;2023-04-28T14:25:21;100994;;;16.55;62.37
70198;BME280;57582;-34.876;138.628;2023-04-28T14:28:20;100996;;;15.95;65.03
70198;BME280;57582;-34.876;138.628;2023-04-28T14:31:20;100997;;;15.88;65.50
70198;BME280;57582;-34.876;138.628;2023-04-28T14:34:20;100988;;;16.04;64.87
70198;BME280;57582;-34.876;138.628;2023-04-28T14:37:20;100993;;;16.09;64.56
70198;BME280;57582;-34.876;138.628;2023-04-28T14:40:20;100991;;;16.24;64.26
70198;BME280;57582;-34.876;138.628;2023-04-28T14:43:20;100994;;;16.35;63.38
70198;BME280;57582;-34.876;138.628;2023-04-28T14:46:20;100989;;;16.13;63.04
70198;BME280;57582;-34.876;138.628;2023-04-28T14:49:20;100990;;;15.09;66.48
70198;BME280;57582;-34.876;138.628;2023-04-28T14:52:20;100986;;;14.35;69.06
70198;BME280;57582;-34.876;138.628;2023-04-28T14:55:20;100999;;;13.64;71.60
70198;BME280;57582;-34.876;138.628;2023-04-28T14:58:20;100996;;;13.47;72.74
70198;BME280;57582;-34.876;138.628;2023-04-28T15:01:20;101000;;;13.71;72.26
70198;BME280;57582;-34.876;138.628;2023-04-28T15:04:20;100994;;;14.04;71.48
70198;BME280;57582;-34.876;138.628;2023-04-28T15:07:20;100991;;;13.99;70.97
70198;BME280;57582;-34.876;138.628;2023-04-28T15:10:21;100988;;;13.91;71.32
70198;BME280;57582;-34.876;138.628;2023-04-28T15:13:21;100992;;;13.74;71.49
70198;BME280;57582;-34.876;138.628;2023-04-28T15:16:20;100982;;;13.77;71.53
70198;BME280;57582;-34.876;138.628;2023-04-28T15:19:20;100981;;;13.90;70.58
70198;BME280;57582;-34.876;138.628;2023-04-28T15:22:20;100989;;;13.98;70.12
70198;BME280;57582;-34.876;138.628;2023-04-28T15:25:20;100995;;;14.08;69.54
70198;BME280;57582;-34.876;138.628;2023-04-28T15:28:20;100995;;;14.34;68.71
70198;BME280;57582;-34.876;138.628;2023-04-28T15:31:20;100991;;;14.32;68.06
70198;BME280;57582;-34.876;138.628;2023-04-28T15:34:20;100990;;;13.45;71.46
70198;BME280;57582;-34.876;138.628;2023-04-28T15:40:20;100990;;;12.93;73.87
70198;BME280;57582;-34.876;138.628;2023-04-28T15:43:20;100978;;;13.20;73.21
70198;BME280;57582;-34.876;138.628;2023-04-28T15:46:20;100981;;;13.25;72.25
70198;BME280;57582;-34.876;138.628;2023-04-28T15:49:21;100979;;;13.47;71.24
70198;BME280;57582;-34.876;138.628;2023-04-28T15:52:20;100980;;;13.78;70.32
70198;BME280;57582;-34.876;138.628;2023-04-28T15:55:20;100971;;;14.03;69.22
70198;BME280;57582;-34.876;138.628;2023-04-28T15:58:20;100981;;;14.29;68.29
70198;BME280;57582;-34.876;138.628;2023-04-28T16:01:20;100974;;;14.52;67.48
70198;BME280;57582;-34.876;138.628;2023-04-28T16:04:20;100969;;;14.74;66.38